createdAt,value
2019-01-15T00:00:37.792Z,-2.40
2019-01-15T00:03:07.562Z,-2.30
2019-01-15T00:05:37.168Z,-2.40
2019-01-15T00:08:06.671Z,-2.30
2019-01-15T00:10:36.051Z,-2.30
2019-01-15T00:13:05.802Z,-2.30
2019-01-15T00:15:35.238Z,-2.40
2019-01-15T00:18:04.660Z,-2.30
2019-01-15T00:20:34.405Z,-2.30
2019-01-15T00:23:04.054Z,-2.30
2019-01-15T00:25:33.535Z,-2.30
2019-01-15T00:28:02.992Z,-2.30
2019-01-15T00:30:32.343Z,-2.30
2019-01-15T00:33:02.023Z,-2.20
2019-01-15T00:35:31.317Z,-2.20
2019-01-15T00:38:00.663Z,-2.20
2019-01-15T00:40:30.079Z,-2.20
2019-01-15T00:42:59.396Z,-2.20
2019-01-15T00:45:28.755Z,-2.20
2019-01-15T00:47:58.281Z,-2.20
2019-01-15T00:50:27.687Z,-2.10
2019-01-15T00:52:57.202Z,-2.00
2019-01-15T00:55:26.694Z,-2.00
2019-01-15T00:57:57.686Z,-1.90
2019-01-15T01:00:27.243Z,-2.00
2019-01-15T01:02:56.891Z,-2.00
2019-01-15T01:05:26.925Z,-2.00
2019-01-15T01:07:56.220Z,-2.00
2019-01-15T01:10:25.735Z,-2.00
2019-01-15T01:12:55.144Z,-2.00
2019-01-15T01:15:24.725Z,-2.00
2019-01-15T01:17:54.184Z,-2.00
2019-01-15T01:20:23.919Z,-2.00
2019-01-15T01:22:53.286Z,-2.00
2019-01-15T01:25:22.594Z,-2.00
2019-01-15T01:27:51.927Z,-2.10
2019-01-15T01:30:24.761Z,-2.00
2019-01-15T01:32:54.199Z,-2.00
2019-01-15T01:35:23.579Z,-2.00
2019-01-15T01:37:52.896Z,-2.00
2019-01-15T01:40:22.251Z,-1.90
2019-01-15T01:42:51.660Z,-1.90
2019-01-15T01:45:21.226Z,-1.90
2019-01-15T01:47:50.617Z,-1.90
2019-01-15T01:50:20.047Z,-1.90
2019-01-15T01:52:49.263Z,-1.90
2019-01-15T01:55:18.590Z,-1.90
2019-01-15T01:57:48.208Z,-1.80
2019-01-15T02:00:21.586Z,-1.80
2019-01-15T02:02:51.410Z,-1.80
2019-01-15T02:05:20.768Z,-1.80
2019-01-15T02:07:50.081Z,-1.80
2019-01-15T02:10:20.815Z,-1.80
2019-01-15T02:12:50.773Z,-1.80
2019-01-15T02:15:25.023Z,-1.80
2019-01-15T02:17:54.656Z,-1.80
2019-01-15T02:20:24.079Z,-1.90
2019-01-15T02:22:53.511Z,-1.90
2019-01-15T02:25:23.043Z,-1.90
2019-01-15T02:27:54.462Z,-1.90
2019-01-15T02:30:26.052Z,-1.80
2019-01-15T02:32:55.479Z,-1.80
2019-01-15T02:35:24.721Z,-1.80
2019-01-15T02:37:54.103Z,-1.80
2019-01-15T02:40:23.414Z,-1.80
2019-01-15T02:42:52.948Z,-1.80
2019-01-15T02:45:22.935Z,-1.80
2019-01-15T02:47:52.352Z,-1.70
2019-01-15T02:50:22.827Z,-1.70
2019-01-15T02:52:52.152Z,-1.80
2019-01-15T02:55:21.493Z,-1.80
2019-01-15T02:57:50.900Z,-1.80
2019-01-15T03:00:27.199Z,-1.80
2019-01-15T03:02:56.764Z,-1.80
2019-01-15T03:05:26.355Z,-1.80
2019-01-15T03:07:55.702Z,-1.80
2019-01-15T03:10:25.425Z,-1.80
2019-01-15T03:12:56.644Z,-1.80
2019-01-15T03:15:26.018Z,-1.80
2019-01-15T03:17:55.408Z,-1.80
2019-01-15T03:20:24.866Z,-1.80
2019-01-15T03:22:54.581Z,-1.80
2019-01-15T03:25:24.130Z,-1.70
2019-01-15T03:27:53.666Z,-1.70
2019-01-15T03:30:26.065Z,-1.70
2019-01-15T03:32:55.460Z,-1.70
2019-01-15T03:35:24.960Z,-1.70
2019-01-15T03:37:54.540Z,-1.70
2019-01-15T03:40:26.816Z,-1.70
2019-01-15T03:43:03.655Z,-1.70
2019-01-15T03:45:27.284Z,-1.70
2019-01-15T03:47:56.610Z,-1.70
2019-01-15T03:50:25.972Z,-1.70
2019-01-15T03:52:55.343Z,-1.70
2019-01-15T03:55:24.960Z,-1.70
2019-01-15T03:57:54.351Z,-1.70
2019-01-15T04:00:27.284Z,-1.70
2019-01-15T04:02:57.554Z,-1.70
2019-01-15T04:05:27.111Z,-1.80
2019-01-15T04:08:00.059Z,-1.80
2019-01-15T04:10:29.864Z,-1.80
2019-01-15T04:12:59.464Z,-1.90
2019-01-15T04:15:29.256Z,-1.90
2019-01-15T04:17:58.679Z,-1.90
2019-01-15T04:20:27.934Z,-1.90
2019-01-15T04:22:57.458Z,-2.00
2019-01-15T04:25:26.905Z,-1.90
2019-01-15T04:27:56.315Z,-2.00
2019-01-15T04:30:25.636Z,-2.00
2019-01-15T04:32:54.941Z,-2.10
2019-01-15T04:35:24.562Z,-2.10
2019-01-15T04:37:54.002Z,-2.10
2019-01-15T04:40:23.747Z,-2.10
2019-01-15T04:42:53.338Z,-2.10
2019-01-15T04:45:24.259Z,-2.20
2019-01-15T04:47:53.841Z,-2.20
2019-01-15T04:50:23.234Z,-2.20
2019-01-15T04:52:55.843Z,-2.20
2019-01-15T04:55:25.272Z,-2.20
2019-01-15T04:57:54.567Z,-2.30
2019-01-15T05:00:24.441Z,-2.30
2019-01-15T05:02:55.209Z,-2.30
2019-01-15T05:05:24.611Z,-2.30
2019-01-15T05:07:53.977Z,-2.30
2019-01-15T05:10:23.351Z,-2.30
2019-01-15T05:12:52.691Z,-2.40
2019-01-15T05:15:22.187Z,-2.40
2019-01-15T05:17:51.491Z,-2.40
2019-01-15T05:20:21.222Z,-2.40
2019-01-15T05:22:50.556Z,-2.40
2019-01-15T05:25:20.905Z,-2.40
2019-01-15T05:27:50.791Z,-2.40
2019-01-15T05:30:22.298Z,-2.30
2019-01-15T05:32:51.731Z,-2.30
2019-01-15T05:35:21.104Z,-2.30
2019-01-15T05:37:50.600Z,-2.30
2019-01-15T05:40:20.375Z,-2.30
2019-01-15T05:42:49.679Z,-2.20
2019-01-15T05:45:32.442Z,-2.20
2019-01-15T05:48:08.248Z,-2.30
2019-01-15T05:50:53.243Z,-2.30
2019-01-15T05:53:22.992Z,-2.30
2019-01-15T05:55:52.446Z,-2.30
2019-01-15T05:58:21.812Z,-2.30
2019-01-15T06:00:51.204Z,-2.30
2019-01-15T06:03:20.607Z,-2.30
2019-01-15T06:05:49.988Z,-2.30
2019-01-15T06:08:19.329Z,-2.20
2019-01-15T06:10:48.749Z,-2.30
2019-01-15T06:13:18.119Z,-2.30
2019-01-15T06:15:47.655Z,-2.30
2019-01-15T06:18:17.052Z,-2.30
2019-01-15T06:20:46.524Z,-2.30
2019-01-15T06:23:15.936Z,-2.30
2019-01-15T06:25:45.277Z,-2.30
2019-01-15T06:28:14.670Z,-2.30
2019-01-15T06:30:44.009Z,-2.30
2019-01-15T06:33:13.408Z,-2.30
2019-01-15T06:35:42.957Z,-2.40
2019-01-15T06:38:12.365Z,-2.40
2019-01-15T06:40:41.801Z,-2.40
2019-01-15T06:43:11.296Z,-2.40
2019-01-15T06:45:40.725Z,-2.50
2019-01-15T06:48:10.186Z,-2.40
2019-01-15T06:50:39.461Z,-2.40
2019-01-15T06:53:08.866Z,-2.40
2019-01-15T06:55:38.335Z,-2.40
2019-01-15T06:58:07.858Z,-2.30
2019-01-15T07:00:37.161Z,-2.40
2019-01-15T07:03:06.651Z,-2.40
2019-01-15T07:05:35.910Z,-2.30
2019-01-15T07:08:05.310Z,-2.30
2019-01-15T07:10:37.226Z,-2.30
2019-01-15T07:13:06.757Z,-2.30
2019-01-15T07:15:36.178Z,-2.30
2019-01-15T07:18:05.787Z,-2.30
2019-01-15T07:20:35.312Z,-2.30
2019-01-15T07:23:04.565Z,-2.20
2019-01-15T07:25:33.952Z,-2.20
2019-01-15T07:28:03.393Z,-2.20
2019-01-15T07:30:45.153Z,-2.10
2019-01-15T07:33:14.728Z,-2.10
2019-01-15T07:35:44.248Z,-2.00
2019-01-15T07:38:13.639Z,-2.00
2019-01-15T07:40:42.972Z,-2.00
2019-01-15T07:43:12.184Z,-2.00
2019-01-15T07:45:41.701Z,-1.90
2019-01-15T07:48:11.096Z,-1.90
2019-01-15T07:50:40.455Z,-1.90
2019-01-15T07:53:09.983Z,-1.80
2019-01-15T07:55:39.387Z,-1.80
2019-01-15T07:58:08.709Z,-1.80
2019-01-15T08:00:38.199Z,-1.70
2019-01-15T08:03:08.098Z,-1.70
2019-01-15T08:05:37.471Z,-1.70
2019-01-15T08:08:06.983Z,-1.60
2019-01-15T08:10:36.383Z,-1.60
2019-01-15T08:13:06.111Z,-1.50
2019-01-15T08:15:35.489Z,-1.50
2019-01-15T08:18:05.028Z,-1.40
2019-01-15T08:20:34.247Z,-1.40
2019-01-15T08:23:03.568Z,-1.30
2019-01-15T08:25:32.994Z,-0.60
2019-01-15T08:28:02.420Z,-0.60
2019-01-15T08:30:34.593Z,0.20
2019-01-15T08:33:04.038Z,-0.20
2019-01-15T08:35:33.461Z,-0.40
2019-01-15T08:38:03.047Z,-0.40
2019-01-15T08:40:32.315Z,-0.50
2019-01-15T08:43:01.609Z,-0.60
2019-01-15T08:45:30.947Z,-0.70
2019-01-15T08:48:04.541Z,-0.80
2019-01-15T08:50:34.333Z,-0.80
2019-01-15T08:53:03.732Z,-0.70
2019-01-15T08:55:33.062Z,-0.70
2019-01-15T08:58:02.471Z,-0.70
2019-01-15T09:00:32.020Z,-0.70
2019-01-15T09:03:01.347Z,-0.70
2019-01-15T09:05:30.711Z,-0.10
2019-01-15T09:08:00.097Z,-0.10
2019-01-15T09:10:29.503Z,1.20
2019-01-15T09:12:59.099Z,0.80
2019-01-15T09:15:28.619Z,0.30
2019-01-15T09:17:57.968Z,0.10
2019-01-15T09:20:27.406Z,0.00
2019-01-15T09:22:56.983Z,-0.10
2019-01-15T09:25:26.290Z,-0.10
2019-01-15T09:27:55.628Z,-0.10
2019-01-15T09:30:24.916Z,-0.10
2019-01-15T09:32:54.310Z,-0.10
2019-01-15T09:35:23.692Z,-0.10
2019-01-15T09:37:53.306Z,0.00
2019-01-15T09:40:24.222Z,0.00
2019-01-15T09:42:53.474Z,0.00
2019-01-15T09:45:24.443Z,0.10
2019-01-15T09:48:19.543Z,0.10
2019-01-15T09:50:48.927Z,0.00
2019-01-15T09:53:18.252Z,0.10
2019-01-15T09:55:47.674Z,0.10
2019-01-15T09:58:17.374Z,0.00
2019-01-15T10:00:46.693Z,0.00
2019-01-15T10:03:16.210Z,-0.10
2019-01-15T10:05:45.590Z,-0.10
2019-01-15T10:08:15.073Z,0.00
2019-01-15T10:10:46.797Z,0.00
2019-01-15T10:13:16.301Z,0.10
2019-01-15T10:15:45.807Z,0.20
2019-01-15T10:18:15.350Z,0.20
2019-01-15T10:20:44.774Z,0.40
2019-01-15T10:23:14.171Z,0.40
2019-01-15T10:25:44.260Z,0.40
2019-01-15T10:28:15.338Z,0.40
2019-01-15T10:31:13.618Z,0.30
2019-01-15T10:33:57.042Z,0.30
2019-01-15T10:36:24.740Z,0.30
2019-01-15T10:38:54.133Z,0.30
2019-01-15T10:41:23.499Z,0.20
2019-01-15T10:43:52.905Z,0.20
2019-01-15T10:46:22.265Z,0.20
2019-01-15T10:48:51.701Z,0.20
2019-01-15T10:51:23.152Z,0.20
2019-01-15T10:53:53.485Z,0.20
2019-01-15T10:56:22.840Z,0.20
2019-01-15T10:58:52.567Z,0.20
2019-01-15T11:01:22.073Z,0.20
2019-01-15T11:03:51.643Z,0.20
2019-01-15T11:06:21.128Z,0.20
2019-01-15T11:08:50.551Z,0.20
2019-01-15T11:11:20.036Z,0.30
2019-01-15T11:13:49.479Z,0.20
2019-01-15T11:16:18.899Z,0.20
2019-01-15T11:18:48.605Z,0.20
2019-01-15T11:21:17.929Z,0.20
2019-01-15T11:23:47.534Z,0.20
2019-01-15T11:26:16.958Z,0.20
2019-01-15T11:28:46.286Z,0.20
2019-01-15T11:31:15.667Z,0.30
2019-01-15T11:33:45.114Z,0.30
2019-01-15T11:36:14.547Z,0.30
2019-01-15T11:38:44.171Z,0.30
2019-01-15T11:41:13.538Z,0.30
2019-01-15T11:43:42.822Z,0.30
2019-01-15T11:46:12.389Z,0.30
2019-01-15T11:48:43.288Z,0.30
2019-01-15T11:51:12.723Z,0.20
2019-01-15T11:53:42.252Z,0.20
2019-01-15T11:56:11.643Z,0.20
2019-01-15T11:58:43.448Z,0.20
2019-01-15T12:01:18.057Z,0.20
2019-01-15T12:04:08.709Z,0.10
2019-01-15T12:07:00.210Z,0.10
2019-01-15T12:09:47.415Z,0.00
2019-01-15T12:12:50.828Z,0.00
2019-01-15T12:15:40.991Z,-0.10
2019-01-15T12:18:28.488Z,-0.20
2019-01-15T12:21:25.835Z,-0.30
2019-01-15T12:24:22.649Z,-0.30
2019-01-15T12:27:16.818Z,-0.30
2019-01-15T12:30:04.852Z,-0.30
2019-01-15T12:32:56.443Z,-0.30
2019-01-15T12:35:56.337Z,-0.30
2019-01-15T12:38:43.516Z,-0.30
2019-01-15T12:41:30.523Z,-0.30
2019-01-15T12:44:08.996Z,-0.30
2019-01-15T12:46:56.105Z,-0.30
2019-01-15T12:49:44.503Z,-0.20
2019-01-15T12:52:31.827Z,-0.20
2019-01-15T12:55:25.010Z,-0.20
2019-01-15T12:58:11.836Z,-0.20
2019-01-15T13:01:06.539Z,-0.20
2019-01-15T13:03:53.399Z,-0.20
2019-01-15T13:06:40.512Z,-0.10
2019-01-15T13:09:28.840Z,-0.20
2019-01-15T13:12:15.767Z,-0.10
2019-01-15T13:15:07.019Z,-0.10
2019-01-15T13:18:10.645Z,-0.10
2019-01-15T13:20:59.371Z,-0.10
2019-01-15T13:23:59.879Z,-0.10
2019-01-15T13:26:43.950Z,-0.10
2019-01-15T13:29:31.537Z,-0.10
2019-01-15T13:32:13.471Z,-0.10
2019-01-15T13:35:11.068Z,-0.10
2019-01-15T13:38:05.432Z,0.00
2019-01-15T13:41:12.163Z,-0.10
2019-01-15T13:44:09.763Z,-0.10
2019-01-15T13:47:00.810Z,0.00
2019-01-15T13:50:04.589Z,-0.10
2019-01-15T13:52:44.070Z,0.00
2019-01-15T13:55:35.441Z,0.00
2019-01-15T13:58:26.533Z,0.00
2019-01-15T14:01:13.891Z,0.00
2019-01-15T14:04:10.709Z,0.00
2019-01-15T14:07:01.815Z,0.00
2019-01-15T14:09:56.412Z,0.00
2019-01-15T14:12:44.691Z,0.00
2019-01-15T14:15:39.012Z,-0.10
2019-01-15T14:18:42.775Z,0.00
2019-01-15T14:21:43.192Z,-0.10
2019-01-15T14:24:28.511Z,0.00
2019-01-15T14:27:09.971Z,0.00
2019-01-15T14:29:50.004Z,0.00
2019-01-15T14:32:37.869Z,0.00
2019-01-15T14:35:25.140Z,0.00
2019-01-15T14:38:13.505Z,0.10
2019-01-15T14:41:00.755Z,0.10
2019-01-15T14:43:41.211Z,0.10
2019-01-15T14:46:28.300Z,0.10
2019-01-15T14:49:07.176Z,0.10
2019-01-15T14:51:48.132Z,0.20
2019-01-15T14:54:39.315Z,0.20
2019-01-15T14:57:27.578Z,0.20
2019-01-15T15:00:14.632Z,0.20
2019-01-15T15:02:53.842Z,0.20
2019-01-15T15:05:50.935Z,0.30
2019-01-15T15:08:42.074Z,0.30
2019-01-15T15:11:29.532Z,0.30
2019-01-15T15:14:20.731Z,0.30
2019-01-15T15:17:09.250Z,0.40
2019-01-15T15:19:55.056Z,0.30
2019-01-15T15:22:52.802Z,0.40
2019-01-15T15:25:30.139Z,0.40
2019-01-15T15:28:15.911Z,0.50
2019-01-15T15:31:07.498Z,0.50
2019-01-15T15:33:54.697Z,0.60
2019-01-15T15:36:54.876Z,0.60
2019-01-15T15:39:42.425Z,0.60
2019-01-15T15:42:30.988Z,0.70
2019-01-15T15:45:15.844Z,0.60
2019-01-15T15:47:56.380Z,0.60
2019-01-15T15:50:45.193Z,0.70
2019-01-15T15:53:33.408Z,0.70
2019-01-15T15:56:25.401Z,0.70
2019-01-15T15:59:13.930Z,0.70
2019-01-15T16:01:58.291Z,0.70
2019-01-15T16:04:52.727Z,0.70
2019-01-15T16:07:39.651Z,0.70
2019-01-15T16:10:33.298Z,0.70
2019-01-15T16:13:24.756Z,0.70
2019-01-15T16:16:18.888Z,0.70
2019-01-15T16:19:05.820Z,0.80
2019-01-15T16:21:52.950Z,0.70
2019-01-15T16:24:40.394Z,0.70
2019-01-15T16:27:38.098Z,0.70
2019-01-15T16:30:29.519Z,0.70
2019-01-15T16:33:16.710Z,0.70
2019-01-15T16:36:03.999Z,0.70
2019-01-15T16:39:01.514Z,0.70
2019-01-15T16:41:52.675Z,0.70
2019-01-15T16:44:39.873Z,0.70
2019-01-15T16:47:34.155Z,0.70
2019-01-15T16:50:23.970Z,0.70
2019-01-15T16:53:11.251Z,0.70
2019-01-15T16:56:02.486Z,0.70
2019-01-15T16:58:42.106Z,0.70
2019-01-15T17:01:29.149Z,0.70
2019-01-15T17:04:32.605Z,0.70
2019-01-15T17:07:26.893Z,0.70
2019-01-15T17:10:24.176Z,0.70
2019-01-15T17:13:15.426Z,0.70
2019-01-15T17:16:13.883Z,0.70
2019-01-15T17:19:23.040Z,0.70
2019-01-15T17:22:10.232Z,0.70
2019-01-15T17:25:07.722Z,0.70
2019-01-15T17:27:54.596Z,0.60
2019-01-15T17:30:42.331Z,0.60
2019-01-15T17:33:39.580Z,0.60
2019-01-15T17:36:26.644Z,0.60
2019-01-15T17:39:14.242Z,0.60
2019-01-15T17:42:03.195Z,0.60
2019-01-15T17:44:57.585Z,0.60
2019-01-15T17:48:01.295Z,0.60
2019-01-15T17:50:49.612Z,0.60
2019-01-15T17:53:36.674Z,0.60
2019-01-15T17:56:37.425Z,0.60
2019-01-15T17:59:24.717Z,0.60
2019-01-15T18:02:13.061Z,0.60
2019-01-15T18:05:07.710Z,0.60
2019-01-15T18:08:11.134Z,0.60
2019-01-15T18:10:58.622Z,0.60
2019-01-15T18:14:02.341Z,0.60
2019-01-15T18:16:53.609Z,0.60
2019-01-15T18:19:41.993Z,0.60
2019-01-15T18:22:38.824Z,0.60
2019-01-15T18:25:25.793Z,0.60
2019-01-15T18:28:06.269Z,0.60
2019-01-15T18:30:54.783Z,0.60
2019-01-15T18:33:46.262Z,0.60
2019-01-15T18:36:37.535Z,0.60
2019-01-15T18:39:27.519Z,0.60
2019-01-15T18:42:15.843Z,0.50
2019-01-15T18:45:07.116Z,0.60
2019-01-15T18:47:54.322Z,0.50
2019-01-15T18:50:39.683Z,0.50
2019-01-15T18:53:27.130Z,0.50
2019-01-15T18:56:27.808Z,0.50
2019-01-15T18:59:15.222Z,0.50
2019-01-15T19:02:02.620Z,0.50
2019-01-15T19:04:49.743Z,0.50
2019-01-15T19:07:41.909Z,0.50
2019-01-15T19:10:29.144Z,0.50
2019-01-15T19:13:32.655Z,0.50
2019-01-15T19:16:27.109Z,0.50
2019-01-15T19:19:19.007Z,0.50
2019-01-15T19:22:26.076Z,0.50
2019-01-15T19:25:13.259Z,0.50
2019-01-15T19:28:07.901Z,0.50
2019-01-15T19:31:08.585Z,0.50
2019-01-15T19:34:06.129Z,0.50
2019-01-15T19:36:54.998Z,0.50
2019-01-15T19:39:31.425Z,0.50
2019-01-15T19:42:35.063Z,0.60
2019-01-15T19:45:18.278Z,0.60
2019-01-15T19:48:09.545Z,0.60
2019-01-15T19:50:58.078Z,0.60
2019-01-15T19:53:46.902Z,0.60
2019-01-15T19:56:34.126Z,0.60
2019-01-15T19:59:25.476Z,0.60
2019-01-15T20:02:18.301Z,0.60
2019-01-15T20:05:05.715Z,0.60
2019-01-15T20:07:46.690Z,0.60
2019-01-15T20:10:44.269Z,0.60
2019-01-15T20:13:48.788Z,0.60
2019-01-15T20:16:37.926Z,0.60
2019-01-15T20:19:25.202Z,0.60
2019-01-15T20:22:20.896Z,0.60
2019-01-15T20:25:08.235Z,0.60
2019-01-15T20:27:53.451Z,0.60
2019-01-15T20:30:40.685Z,0.60
2019-01-15T20:33:28.870Z,0.60
2019-01-15T20:36:23.575Z,0.60
2019-01-15T20:39:01.497Z,0.60
2019-01-15T20:42:08.145Z,0.60
2019-01-15T20:44:55.802Z,0.50
2019-01-15T20:47:56.696Z,0.60
2019-01-15T20:51:03.657Z,0.60
2019-01-15T20:53:45.607Z,0.60
2019-01-15T20:56:32.617Z,0.60
2019-01-15T20:59:32.966Z,0.60
2019-01-15T21:02:33.836Z,0.60
2019-01-15T21:05:22.436Z,0.60
2019-01-15T21:08:09.958Z,0.60
2019-01-15T21:11:07.324Z,0.60
2019-01-15T21:14:05.859Z,0.60
2019-01-15T21:16:52.920Z,0.60
2019-01-15T21:19:41.324Z,0.60
2019-01-15T21:22:28.310Z,0.60
2019-01-15T21:25:19.615Z,0.60
2019-01-15T21:28:06.713Z,0.60
2019-01-15T21:30:53.919Z,0.60
2019-01-15T21:33:31.845Z,0.60
2019-01-15T21:36:19.012Z,0.60
2019-01-15T21:39:06.281Z,0.60
2019-01-15T21:41:57.766Z,0.60
2019-01-15T21:44:49.271Z,0.60
2019-01-15T21:47:40.307Z,0.60
2019-01-15T21:50:46.227Z,0.60
2019-01-15T21:53:40.615Z,0.60
2019-01-15T21:56:28.899Z,0.60
2019-01-15T21:59:18.780Z,0.60
2019-01-15T22:02:06.031Z,0.60
2019-01-15T22:04:56.253Z,0.60
2019-01-15T22:07:56.915Z,0.60
2019-01-15T22:10:48.280Z,0.60
2019-01-15T22:13:37.413Z,0.60
2019-01-15T22:16:31.555Z,0.60
2019-01-15T22:19:18.807Z,0.60
2019-01-15T22:22:10.246Z,0.60
2019-01-15T22:25:01.900Z,0.60
2019-01-15T22:27:43.329Z,0.60
2019-01-15T22:30:24.663Z,0.60
2019-01-15T22:33:09.964Z,0.60
2019-01-15T22:35:57.265Z,0.60
2019-01-15T22:38:51.834Z,0.60
2019-01-15T22:41:59.147Z,0.60
2019-01-15T22:44:46.347Z,0.70
2019-01-15T22:47:33.778Z,0.70
2019-01-15T22:50:22.144Z,0.70
2019-01-15T22:52:59.255Z,0.70
2019-01-15T22:56:03.028Z,0.70
2019-01-15T22:58:41.467Z,0.70
2019-01-15T23:01:35.756Z,0.70
2019-01-15T23:04:19.936Z,0.70
2019-01-15T23:07:14.583Z,0.70
2019-01-15T23:10:05.663Z,0.70
2019-01-15T23:12:43.704Z,0.80
2019-01-15T23:15:35.194Z,0.70
2019-01-15T23:18:23.255Z,0.70
2019-01-15T23:21:30.084Z,0.80
2019-01-15T23:24:17.286Z,0.80
2019-01-15T23:27:05.753Z,0.80
2019-01-15T23:29:54.019Z,0.80
2019-01-15T23:32:45.632Z,0.80
2019-01-15T23:35:32.976Z,0.80
2019-01-15T23:38:20.418Z,0.80
2019-01-15T23:41:15.693Z,0.90
2019-01-15T23:44:03.120Z,0.90
2019-01-15T23:47:03.541Z,0.90
2019-01-15T23:50:01.135Z,0.90
2019-01-15T23:52:58.773Z,0.90
2019-01-15T23:55:59.591Z,0.90
2019-01-15T23:58:46.810Z,0.90
